Changsha Huanghua Airport
ZGHA : now visible

Airfield :











YOU CAN JOIN US ON...

 
LOGIN :

Register | Disclaimer

   EN    FR    IT 

 









Legend :    VFR   Marginal VFR   IFR   Intensive IFR   Very Intensive IFR
Visi :
Ceiling :
>= 8 km
>= 3000ft
5 to 8 km
1000 to 3000 ft
1500m to 5 km
500 to 1000 ft
800 to 1500m
200 to 500 ft
< 800m
< 200 ft
Symbols :   Thunderstorms  Fog  Heavy snow  Heavy precipitations  Wind > 20 kt






- Airport Elevation : 217 ft
- IATA code : CSX


ZGHA - Changsha Huanghua

CURRENT METAR :
  • 290500Z 17004MPS 140V200 CAVOK 28/16 Q1005 NOSIG

EXPIRED METARs :
  • 290400Z 15005MPS CAVOK 29/15 Q1006 NOSIG
  • 290300Z 13005MPS 110V170 CAVOK 28/14 Q1006 NOSIG
  • 290200Z 13002MPS 050V210 CAVOK 28/14 Q1007 NOSIG
  • 290100Z 10002MPS 050V160 CAVOK 26/16 Q1007 NOSIG

TAF TAF ZGHA
Valid from the 29 at 00:00 until the 30 at 00:00 UTC


282101Z 2900/2924 35004MPS 6000 SCT040 TX30/2907Z TN21/2922Z
ZGZU FIR / Asia



MET'MAP, your aeronautical weather chart ! - Copyright ORBIFLY December 2007 - Disclaimer

ORBIFLY MET'MAP TEAM :

Programming & Development : Alexandra Zaïnal
Original concept : Baudouin d'Aumeries
Technical & hardware support : Manuel Goepfert
Assistance : Marc-Olivier Méhu




SOURCES & CREDITS :

   NOAA       Earth
Advisory